Delta Audrey — WDH5227 — position and weather

sailwx.info

Track history (hours):
 
Tides and Currents Weather Stations Pressure Air Temp Water Temp Dewpoint Dewpoint Depression Visibility Wind Speed Wind Dir Waves Ship Positions

Delta Audrey

Owner: BAYDELTA MARITIME LLC, EMBARCADERO, CA. More information available from US FCC via Universal Licensing System and Coast Guard Vessel Documentation Center.

Last reported at 2017-Nov-16 11:41 UTC. Time now 2017-Nov-18 08:55 UTC.
Position N 33°44' W 118°17'.

Length 30 m; draft 4.8 m.

Type: Towing. MMSI: 367625810.

Date/timePositionNaut miles runAvg speedWind from/ knotsBaromVisibWave heightAir tempDewpointWater temp
2017-Nov-16 11:41N 33°44' W 118°17'1 0.1
2017-Nov-15 17:23N 33°43' W 118°16'2 1.5
2017-Nov-15 15:42N 33°43' W 118°13'2 9.4
2017-Nov-15 15:27N 33°43' W 118°16'2 1.4
2017-Nov-15 13:58N 33°45' W 118°16'1 2.5
2017-Nov-15 13:25N 33°44' W 118°17'1 3.1
2017-Nov-15 13:00N 33°43' W 118°16'2 4.6
2017-Nov-15 12:30N 33°43' W 118°13'0 0.1
2017-Nov-15 12:01N 33°43' W 118°13'2 0.4
2017-Nov-15 06:56N 33°45' W 118°14'2 0.1
2017-Nov-14 01:47N 33°44' W 118°17'1 0.8
2017-Nov-14 00:37N 33°45' W 118°16'0 0.1
2017-Nov-14 00:30N 33°45' W 118°16'0 0.2
2017-Nov-14 00:00N 33°45' W 118°16'0 0.0
2017-Nov-13 23:14N 33°45' W 118°16'1 2.9
2017-Nov-13 22:59N 33°45' W 118°16'2 4.3
2017-Nov-13 22:30N 33°43' W 118°15'2 0.1
2017-Nov-12 21:48N 33°44' W 118°17'3 0.5
2017-Nov-12 15:00N 33°44' W 118°13'  
2017-Nov-10 04:41N 33°41' W 118°14'3 0.1
2017-Nov-08 10:34N 33°44' W 118°15'0 0.5
2017-Nov-08 10:16N 33°44' W 118°15'2 0.3
2017-Nov-08 00:57N 33°45' W 118°13'1 0.3
2017-Nov-07 21:29N 33°46' W 118°13'0 0.4
2017-Nov-07 20:59N 33°46' W 118°13'1 2.5
2017-Nov-07 20:29N 33°45' W 118°13'3 5.7
2017-Nov-07 20:00N 33°43' W 118°11'5 0.3
2017-Nov-07 03:53N 33°44' W 118°17'  
Track history (hours):
 
Tides and Currents Weather Stations Pressure Air Temp Water Temp Dewpoint Dewpoint Depression Visibility Wind Speed Wind Dir Waves Ship Positions

Delta Audrey

Owner: BAYDELTA MARITIME LLC, EMBARCADERO, CA. More information available from US FCC via Universal Licensing System and Coast Guard Vessel Documentation Center.

Last reported at 2017-Nov-16 11:41 UTC. Time now 2017-Nov-18 08:55 UTC.
Position N 33°44' W 118°17'.

Length 30 m; draft 4.8 m.

Type: Towing. MMSI: 367625810.

Date/timePositionNaut miles runAvg speedWind from/ knotsBaromVisibWave heightAir tempDewpointWater temp
2017-Nov-16 11:41N 33°44' W 118°17'1 0.1
2017-Nov-15 17:23N 33°43' W 118°16'2 1.5
2017-Nov-15 15:42N 33°43' W 118°13'2 9.4
2017-Nov-15 15:27N 33°43' W 118°16'2 1.4
2017-Nov-15 13:58N 33°45' W 118°16'1 2.5
2017-Nov-15 13:25N 33°44' W 118°17'1 3.1
2017-Nov-15 13:00N 33°43' W 118°16'2 4.6
2017-Nov-15 12:30N 33°43' W 118°13'0 0.1
2017-Nov-15 12:01N 33°43' W 118°13'2 0.4
2017-Nov-15 06:56N 33°45' W 118°14'2 0.1
2017-Nov-14 01:47N 33°44' W 118°17'1 0.8
2017-Nov-14 00:37N 33°45' W 118°16'0 0.1
2017-Nov-14 00:30N 33°45' W 118°16'0 0.2
2017-Nov-14 00:00N 33°45' W 118°16'0 0.0
2017-Nov-13 23:14N 33°45' W 118°16'1 2.9
2017-Nov-13 22:59N 33°45' W 118°16'2 4.3
2017-Nov-13 22:30N 33°43' W 118°15'2 0.1
2017-Nov-12 21:48N 33°44' W 118°17'3 0.5
2017-Nov-12 15:00N 33°44' W 118°13'  
2017-Nov-10 04:41N 33°41' W 118°14'3 0.1
2017-Nov-08 10:34N 33°44' W 118°15'0 0.5
2017-Nov-08 10:16N 33°44' W 118°15'2 0.3
2017-Nov-08 00:57N 33°45' W 118°13'1 0.3
2017-Nov-07 21:29N 33°46' W 118°13'0 0.4
2017-Nov-07 20:59N 33°46' W 118°13'1 2.5
2017-Nov-07 20:29N 33°45' W 118°13'3 5.7
2017-Nov-07 20:00N 33°43' W 118°11'5 0.3
2017-Nov-07 03:53N 33°44' W 118°17'  

Dump ship's entire track history